This is the latest recevied weather packets stored in our database for station/object N5BTB-10. If no packets are shown the sender has not sent any weather packets the latest 10 day(s).
| Time | Temp. | Humidity | Pressure | Rain* | Wind** | Luminosity | Snow |
|---|---|---|---|---|---|---|---|
| 1778101206 | 18.33° C | 62% | - | 0 mm | - | - | - |
| 1778097606 | 15° C | 68% | - | 0 mm | - | - | - |
| 1778094006 | 15.56° C | 66% | - | 0 mm | - | - | - |
| 1778090406 | 14.44° C | 66% | - | 0 mm | - | - | - |
| 1778086806 | 13.33° C | 71% | - | 0 mm | - | - | - |
| 1778083206 | 12.78° C | 73% | - | 0 mm | - | - | - |
| 1778079606 | 12.78° C | 73% | - | 0 mm | - | - | - |
| 1778076006 | 11.67° C | 80% | - | 0 mm | - | - | - |
| 1778072406 | 11.11° C | 83% | - | 0 mm | - | - | - |
| 1778068806 | 11.67° C | 82% | - | 0 mm | - | - | - |
| 1778065206 | 11.67° C | 80% | - | 0 mm | - | - | - |
| 1778061606 | 12.22° C | 80% | - | 0 mm | - | - | - |
| 1778058006 | 12.22° C | 80% | - | 0 mm | - | - | - |
| 1778054406 | 12.22° C | 81% | - | 0 mm | - | - | - |
| 1778050805 | 12.22° C | 82% | - | 0 mm | - | - | - |
| 1778047205 | 12.22° C | 80% | - | 0 mm | - | - | - |
| 1778043605 | 12.22° C | 80% | - | 0 mm | - | - | - |
| 1778040005 | 12.78° C | 77% | - | 0 mm | - | - | - |
| 1778036405 | 14.44° C | 72% | - | 0 mm | - | - | - |
| 1778032805 | 15.56° C | 70% | - | 0 mm | - | - | - |
| 1778029205 | 17.22° C | 66% | - | 0 mm | - | - | - |
| 1778025605 | 17.78° C | 65% | - | 0 mm | - | - | - |
| 1778022005 | 17.78° C | 64% | - | 0 mm | - | - | - |
| 1778018405 | 17.78° C | 63% | - | 0 mm | - | - | - |
| 1778014805 | 17.78° C | 56% | - | 0 mm | - | - | - |
* Rain latest hour (hover to see other rain measurements)
** Current wind speed in m/s (hover to see current wind gust speed)